createdAt,value
2019-03-29T00:01:57.572Z,25.33
2019-03-29T00:07:18.710Z,24.87
2019-03-29T00:12:40.200Z,26.87
2019-03-29T00:18:01.360Z,28.20
2019-03-29T00:23:23.107Z,27.53
2019-03-29T00:28:44.050Z,29.00
2019-03-29T00:34:04.871Z,31.10
2019-03-29T00:39:25.515Z,31.03
2019-03-29T00:44:46.758Z,28.00
2019-03-29T00:50:08.153Z,31.63
2019-03-29T00:55:28.730Z,29.43
2019-03-29T01:00:49.877Z,30.43
2019-03-29T01:06:10.836Z,30.63
2019-03-29T01:11:32.021Z,30.33
2019-03-29T01:16:53.868Z,30.97
2019-03-29T01:22:14.908Z,29.07
2019-03-29T01:27:36.253Z,28.57
2019-03-29T01:32:57.381Z,29.70
2019-03-29T01:38:22.138Z,34.37
2019-03-29T01:43:41.440Z,33.63
2019-03-29T01:49:02.924Z,33.03
2019-03-29T01:54:23.949Z,32.93
2019-03-29T01:59:45.062Z,32.70
2019-03-29T02:05:06.200Z,36.07
2019-03-29T02:10:27.133Z,35.00
2019-03-29T02:15:48.316Z,27.87
2019-03-29T02:21:09.665Z,26.63
2019-03-29T02:26:31.004Z,33.53
2019-03-29T02:31:52.326Z,31.57
2019-03-29T02:37:13.503Z,28.40
2019-03-29T02:42:34.536Z,31.63
2019-03-29T02:47:55.927Z,28.90
2019-03-29T02:53:16.892Z,26.23
2019-03-29T02:58:38.441Z,30.20
2019-03-29T03:03:59.614Z,30.33
2019-03-29T03:09:20.783Z,32.60
2019-03-29T03:14:42.133Z,36.90
2019-03-29T03:20:04.638Z,35.20
2019-03-29T03:25:25.495Z,35.30
2019-03-29T03:30:46.621Z,33.90
2019-03-29T03:36:07.718Z,37.43
2019-03-29T03:41:28.956Z,35.40
2019-03-29T03:46:51.170Z,39.80
2019-03-29T03:52:12.626Z,37.73
2019-03-29T03:57:34.566Z,43.00
2019-03-29T04:02:55.719Z,41.53
2019-03-29T04:08:17.019Z,42.13
2019-03-29T04:13:38.011Z,42.90
2019-03-29T04:18:58.840Z,42.67
2019-03-29T04:24:19.941Z,46.97
2019-03-29T04:29:41.373Z,41.07
2019-03-29T04:35:02.580Z,47.20
2019-03-29T04:40:23.759Z,51.63
2019-03-29T04:45:44.816Z,62.00
2019-03-29T04:51:05.938Z,52.83
2019-03-29T04:56:27.042Z,55.50
2019-03-29T05:01:48.078Z,49.07
2019-03-29T05:07:09.329Z,49.47
2019-03-29T05:12:30.636Z,51.90
2019-03-29T05:17:52.013Z,93.63
2019-03-29T05:23:13.117Z,55.40
2019-03-29T05:28:35.527Z,52.93
2019-03-29T05:33:56.732Z,52.53
2019-03-29T05:39:17.969Z,48.10
2019-03-29T05:44:40.782Z,50.03
2019-03-29T05:50:01.496Z,53.50
2019-03-29T05:55:32.409Z,52.67
2019-03-29T06:00:45.256Z,50.30
2019-03-29T06:06:06.043Z,51.00
2019-03-29T06:11:26.725Z,51.30
2019-03-29T06:16:47.650Z,52.17
2019-03-29T06:22:08.637Z,51.53
2019-03-29T06:27:29.759Z,51.30
2019-03-29T06:32:51.314Z,53.57
2019-03-29T06:38:13.281Z,52.57
2019-03-29T06:43:34.136Z,54.30
2019-03-29T06:48:55.132Z,49.53
2019-03-29T06:54:15.680Z,60.93
2019-03-29T06:59:36.811Z,52.20
2019-03-29T07:04:57.655Z,53.30
2019-03-29T07:10:18.925Z,64.10
2019-03-29T07:15:41.200Z,51.17
2019-03-29T07:21:02.029Z,47.03
2019-03-29T07:26:23.083Z,49.30
2019-03-29T07:31:44.131Z,47.93
2019-03-29T07:37:05.998Z,47.93
2019-03-29T07:42:26.793Z,45.63
2019-03-29T07:47:47.704Z,48.73
2019-03-29T07:53:08.639Z,50.07
2019-03-29T07:58:29.876Z,46.93
2019-03-29T08:03:51.420Z,48.20
2019-03-29T08:09:22.144Z,49.80
2019-03-29T08:14:36.266Z,47.97
2019-03-29T08:20:24.554Z,48.77
2019-03-29T08:25:20.073Z,49.23
2019-03-29T08:30:41.063Z,48.30
2019-03-29T08:36:02.530Z,46.30
2019-03-29T08:41:23.536Z,46.17
2019-03-29T08:46:44.996Z,46.77
2019-03-29T08:52:06.104Z,48.17
2019-03-29T08:57:27.302Z,44.50
2019-03-29T09:02:48.497Z,40.87
2019-03-29T09:08:09.809Z,41.00
2019-03-29T09:13:30.969Z,41.43
2019-03-29T09:18:52.105Z,37.03
2019-03-29T09:24:21.981Z,39.93
2019-03-29T09:29:36.105Z,39.47
2019-03-29T09:34:57.310Z,37.13
2019-03-29T09:40:18.917Z,32.00
2019-03-29T09:45:41.310Z,32.27
2019-03-29T09:51:02.442Z,29.47
2019-03-29T09:56:37.508Z,25.33
2019-03-29T10:01:45.892Z,25.07
2019-03-29T10:07:08.198Z,18.37
2019-03-29T10:12:42.275Z,24.40
2019-03-29T10:17:51.887Z,19.73
2019-03-29T10:23:12.578Z,16.60
2019-03-29T10:28:33.711Z,8.03
2019-03-29T10:33:54.674Z,5.93
2019-03-29T10:39:16.708Z,8.37
2019-03-29T10:44:37.390Z,7.47
2019-03-29T10:49:58.357Z,4.77
2019-03-29T10:55:19.630Z,3.20
2019-03-29T11:00:41.129Z,2.80
2019-03-29T11:06:01.945Z,2.40
2019-03-29T11:11:22.737Z,2.70
2019-03-29T11:16:43.900Z,2.90
2019-03-29T11:22:04.928Z,2.67
2019-03-29T11:27:25.653Z,2.67
2019-03-29T11:32:46.668Z,2.50
2019-03-29T11:38:07.400Z,2.00
2019-03-29T11:43:28.925Z,2.13
2019-03-29T11:48:49.711Z,2.50
2019-03-29T11:54:10.858Z,2.93
2019-03-29T11:59:32.059Z,2.20
2019-03-29T12:04:53.499Z,3.90
2019-03-29T12:10:14.532Z,2.37
2019-03-29T12:15:35.743Z,2.70
2019-03-29T12:20:56.952Z,3.03
2019-03-29T12:26:18.130Z,3.40
2019-03-29T12:31:38.848Z,3.70
2019-03-29T12:36:59.998Z,4.60
2019-03-29T12:42:21.163Z,4.43
2019-03-29T12:47:42.047Z,4.57
2019-03-29T12:53:03.137Z,5.90
2019-03-29T12:58:23.894Z,8.77
2019-03-29T13:03:44.805Z,9.93
2019-03-29T13:09:07.004Z,10.70
2019-03-29T13:14:28.026Z,11.63
2019-03-29T13:19:50.218Z,11.87
2019-03-29T13:25:11.719Z,10.90
2019-03-29T13:30:33.962Z,12.73
2019-03-29T13:35:55.238Z,11.53
2019-03-29T13:41:16.401Z,11.77
2019-03-29T13:46:37.566Z,11.73
2019-03-29T13:51:59.019Z,12.53
2019-03-29T13:57:20.217Z,12.13
2019-03-29T14:02:41.175Z,11.10
2019-03-29T14:08:02.328Z,12.50
2019-03-29T14:13:24.515Z,10.03
2019-03-29T14:18:45.852Z,9.83
2019-03-29T14:24:06.756Z,10.23
2019-03-29T14:29:27.896Z,14.27
2019-03-29T14:34:48.814Z,11.10
2019-03-29T14:40:10.527Z,9.80
2019-03-29T14:45:31.687Z,9.10
2019-03-29T14:50:52.818Z,10.20
2019-03-29T14:56:14.024Z,9.83
2019-03-29T15:01:35.181Z,10.13
2019-03-29T15:06:56.656Z,10.58
2019-03-29T15:12:17.531Z,9.03
2019-03-29T15:17:38.789Z,8.40
2019-03-29T15:22:59.769Z,10.25
2019-03-29T15:28:20.922Z,8.45
2019-03-29T15:33:42.159Z,7.70
2019-03-29T15:39:04.031Z,8.00
2019-03-29T15:44:26.176Z,7.50
2019-03-29T15:49:55.782Z,7.33
2019-03-29T15:55:11.446Z,7.70
2019-03-29T16:00:32.640Z,9.45
2019-03-29T16:05:53.595Z,8.53
2019-03-29T16:11:17.401Z,8.43
2019-03-29T16:16:59.904Z,6.37
2019-03-29T16:22:20.980Z,6.05
2019-03-29T16:27:42.221Z,6.87
2019-03-29T16:33:03.600Z,6.95
2019-03-29T16:38:24.517Z,4.67
2019-03-29T16:43:45.346Z,3.83
2019-03-29T16:49:06.071Z,4.10
2019-03-29T16:54:27.499Z,4.70
2019-03-29T16:59:48.631Z,4.40
2019-03-29T17:05:10.471Z,5.92
2019-03-29T17:10:31.709Z,4.53
2019-03-29T17:16:01.601Z,4.80
2019-03-29T17:21:15.811Z,6.70
2019-03-29T17:26:36.625Z,6.00
2019-03-29T17:31:57.618Z,7.47
2019-03-29T17:37:19.072Z,7.47
2019-03-29T17:42:40.282Z,7.13
2019-03-29T17:48:01.501Z,7.23
2019-03-29T17:53:22.603Z,7.40
2019-03-29T17:58:43.541Z,7.93
2019-03-29T18:04:04.735Z,7.20
2019-03-29T18:09:26.005Z,7.20
2019-03-29T18:14:46.851Z,7.17
2019-03-29T18:20:08.385Z,7.23
2019-03-29T18:25:29.256Z,7.77
2019-03-29T18:30:50.599Z,7.40
2019-03-29T18:36:11.830Z,9.47
2019-03-29T18:41:33.198Z,28.23
2019-03-29T18:46:53.990Z,16.53
2019-03-29T18:52:15.142Z,10.23
2019-03-29T18:57:36.301Z,10.33
2019-03-29T19:02:57.345Z,9.80
2019-03-29T19:08:18.739Z,13.30
2019-03-29T19:13:39.492Z,11.03
2019-03-29T19:19:10.013Z,10.50
2019-03-29T19:24:23.390Z,8.43
2019-03-29T19:29:44.538Z,9.37
2019-03-29T19:35:06.244Z,9.87
2019-03-29T19:40:27.369Z,14.17
2019-03-29T19:45:49.156Z,11.97
2019-03-29T19:51:09.706Z,18.03
2019-03-29T19:56:31.058Z,16.37
2019-03-29T20:01:53.227Z,13.50
2019-03-29T20:07:14.393Z,12.00
2019-03-29T20:19:12.542Z,14.83
2019-03-29T20:24:33.948Z,14.97
2019-03-29T20:29:55.355Z,19.33
2019-03-29T20:35:16.399Z,15.53
2019-03-29T20:40:37.266Z,15.47
2019-03-29T20:46:04.695Z,14.83
2019-03-29T20:51:25.410Z,16.37
2019-03-29T20:56:46.495Z,15.47
2019-03-29T21:02:07.435Z,15.03
2019-03-29T21:07:28.471Z,16.37
2019-03-29T21:12:49.184Z,16.97
2019-03-29T21:18:10.101Z,17.17
2019-03-29T21:23:30.889Z,14.80
2019-03-29T21:28:53.047Z,15.97
2019-03-29T21:34:14.144Z,16.40
2019-03-29T21:39:35.421Z,14.97
2019-03-29T21:44:56.337Z,13.80
2019-03-29T21:50:17.955Z,15.87
2019-03-29T21:55:38.658Z,15.27
2019-03-29T22:00:59.287Z,17.37
2019-03-29T22:06:20.497Z,17.47
2019-03-29T22:11:41.485Z,16.43
2019-03-29T22:17:02.785Z,15.27
2019-03-29T22:22:23.836Z,18.47
2019-03-29T22:27:45.022Z,27.50
2019-03-29T22:33:06.288Z,21.10
2019-03-29T22:38:27.540Z,19.00
2019-03-29T22:43:49.077Z,21.07
2019-03-29T22:49:10.036Z,19.37
2019-03-29T22:54:31.175Z,20.23
2019-03-29T22:59:52.224Z,23.53
2019-03-29T23:05:13.330Z,19.87
2019-03-29T23:10:34.194Z,17.13
2019-03-29T23:16:03.198Z,17.40
2019-03-29T23:21:24.435Z,16.13
2019-03-29T23:26:45.327Z,17.17
2019-03-29T23:32:06.625Z,17.43
2019-03-29T23:37:27.679Z,16.33
2019-03-29T23:42:48.810Z,17.97
2019-03-29T23:48:10.229Z,22.10
2019-03-29T23:53:31.174Z,18.50
2019-03-29T23:58:51.960Z,17.57
